Archival Weather

Salzburg

Salzburg, Austria (LOWS)

Report from: Thursday, September 21, 2023 10:20 AM CEST
Current time: Sunday, July 14, 2024 1:03 PM CEST

Current weather – Weather history – Daily summaries
Weather forecast

Temperature21.0°C (69.8°F)
Dew point14.0°C (57.2°F)
Winds 6 kts (3.1 m/s, 6.9 mph) South-Southeast (160°)
Visibility6.2 mi. (10 km)
Clouds Few clouds 7,000 ft. (2,134 m)
Altimeter29.71 in.Hg (1006 mB)
Relative humidity64 %
Density altitude1,168 ft. (356 m)
Remarks Fully automated report
No significant changes expected in the next two hours
Flight conditions Visual Meteorological Conditions
Raw dataLOWS 210820Z AUTO 16006KT 9999 FEW070 21/14 Q1006 NOSIG
An error has occurred. This application may no longer respond until reloaded. Reload 🗙